Time;durP1;ratioP1;P1;durP2;ratioP2;P2;SDS_P1;SDS_P2;PMS_P1;PMS_P2;Temp;Humidity;BMP_temperature;BMP_pressure;BME280_temperature;BME280_humidity;BME280_pressure;Samples;Min_cycle;Max_cycle;Signal;HPM_P1;HPM_P2
2022/12/18 00:01:31;;;;;;;84.38;33.50;;;-3.00;99.90;;;;;;5115425;28;20039;-61
2022/12/18 00:03:57;;;;;;;83.25;31.58;;;-3.00;99.90;;;;;;5115848;28;20047;-60
2022/12/18 00:06:24;;;;;;;95.05;36.78;;;-3.10;99.90;;;;;;5115366;28;20549;-61
2022/12/18 00:08:50;;;;;;;92.68;33.97;;;-3.00;99.90;;;;;;5115428;28;20050;-61
2022/12/18 00:11:19;;;;;;;84.57;32.70;;;-3.10;99.90;;;;;;5115175;28;20100;-61
2022/12/18 00:13:45;;;;;;;80.45;33.92;;;-3.10;99.90;;;;;;5115487;28;20039;-61
2022/12/18 00:16:14;;;;;;;76.78;32.17;;;-3.10;99.90;;;;;;5115452;28;20138;-61
2022/12/18 00:18:40;;;;;;;89.77;32.90;;;-3.20;99.90;;;;;;5115341;28;20051;-60
2022/12/18 00:21:08;;;;;;;91.00;33.85;;;-3.10;99.90;;;;;;5115266;28;20596;-61
2022/12/18 00:23:35;;;;;;;91.38;30.90;;;-3.20;99.90;;;;;;5114759;28;20093;-61
2022/12/18 00:26:04;;;;;;;86.32;32.78;;;-3.20;99.90;;;;;;5114891;28;20039;-60
2022/12/18 00:28:30;;;;;;;93.72;34.03;;;-3.20;99.90;;;;;;5114584;28;20573;-60
2022/12/18 00:31:08;;;;;;;98.32;35.38;;;-3.30;99.90;;;;;;5114974;28;20112;-61
2022/12/18 00:33:35;;;;;;;90.43;34.95;;;-3.40;99.90;;;;;;5115022;28;20032;-61
2022/12/18 00:36:02;;;;;;;95.25;36.30;;;-3.20;99.90;;;;;;5096309;28;20039;-60
2022/12/18 00:38:28;;;;;;;98.78;34.25;;;-3.20;99.90;;;;;;5114583;28;20374;-60
2022/12/18 00:40:53;;;;;;;91.72;35.97;;;-3.30;99.90;;;;;;5114587;28;20093;-61
2022/12/18 00:43:19;;;;;;;88.22;32.83;;;-3.20;99.90;;;;;;5114953;28;20035;-60
2022/12/18 00:45:45;;;;;;;98.97;36.38;;;-3.30;99.90;;;;;;5114523;28;20533;-60
2022/12/18 00:48:11;;;;;;;90.40;33.17;;;-3.20;99.90;;;;;;5114477;28;20401;-61
2022/12/18 00:50:36;;;;;;;86.72;33.15;;;-3.20;99.90;;;;;;5114408;28;20035;-60
2022/12/18 00:53:02;;;;;;;99.30;34.33;;;-3.20;99.90;;;;;;5114245;28;20039;-60
2022/12/18 00:55:28;;;;;;;83.53;32.53;;;-3.20;99.90;;;;;;5114157;28;20028;-60
2022/12/18 00:57:53;;;;;;;87.72;34.67;;;-3.20;99.90;;;;;;5114538;28;20486;-60
2022/12/18 01:00:19;;;;;;;81.30;31.00;;;-3.20;99.90;;;;;;5114266;28;20092;-60
2022/12/18 01:02:44;;;;;;;80.85;31.45;;;-3.20;99.90;;;;;;5114276;28;20044;-60
2022/12/18 01:05:12;;;;;;;86.22;31.83;;;-2.60;99.90;;;;;;5114394;28;20046;-61
2022/12/18 01:07:38;;;;;;;78.47;30.90;;;-3.20;99.90;;;;;;5114125;28;20051;-60
2022/12/18 01:10:05;;;;;;;86.22;31.25;;;-3.40;99.90;;;;;;5095444;28;20035;-60
2022/12/18 01:12:31;;;;;;;77.05;31.70;;;-3.30;99.90;;;;;;5114346;28;20043;-61
2022/12/18 01:14:56;;;;;;;76.20;30.92;;;-3.30;99.90;;;;;;5113995;28;20501;-60
2022/12/18 01:17:22;;;;;;;76.47;30.95;;;-3.30;99.90;;;;;;5114082;28;20040;-61
2022/12/18 01:19:48;;;;;;;73.80;30.45;;;-3.30;99.90;;;;;;5113662;28;20550;-60
2022/12/18 01:22:13;;;;;;;70.50;30.10;;;-3.40;99.90;;;;;;5114189;28;20032;-60
2022/12/18 01:24:39;;;;;;;82.68;32.17;;;-3.30;99.90;;;;;;5113920;28;20035;-60
2022/12/18 01:27:05;;;;;;;69.00;30.75;;;-3.40;99.90;;;;;;5113558;28;20430;-60
2022/12/18 01:29:30;;;;;;;82.82;32.55;;;-3.40;99.90;;;;;;5113604;28;20043;-60
2022/12/18 01:31:56;;;;;;;79.68;33.10;;;-3.40;99.90;;;;;;5113720;28;20063;-60
2022/12/18 01:34:25;;;;;;;82.60;32.90;;;-3.40;99.90;;;;;;5113382;28;20031;-60
2022/12/18 01:36:53;;;;;;;76.95;31.20;;;-3.30;99.90;;;;;;5113362;28;20070;-60
2022/12/18 01:39:19;;;;;;;86.97;32.50;;;-3.40;99.90;;;;;;5113379;28;20043;-60
2022/12/18 01:42:03;;;;;;;82.93;33.00;;;-3.50;99.90;;;;;;5113493;28;20369;-60
2022/12/18 01:44:50;;;;;;;89.43;31.67;;;-3.40;99.90;;;;;;5113342;28;20039;-60
2022/12/18 01:47:27;;;;;;;79.82;30.80;;;-3.60;99.90;;;;;;5112759;28;20118;-60
2022/12/18 01:49:53;;;;;;;86.93;30.77;;;-3.50;99.90;;;;;;5113136;28;20039;-60
2022/12/18 01:52:21;;;;;;;79.07;29.80;;;-3.60;99.90;;;;;;5113157;28;20122;-60
2022/12/18 01:54:48;;;;;;;86.90;30.90;;;-3.60;99.90;;;;;;5113018;28;20036;-60
2022/12/18 01:57:14;;;;;;;80.07;31.58;;;-3.70;99.90;;;;;;5112929;28;20549;-60
2022/12/18 01:59:45;;;;;;;71.55;30.48;;;-3.70;99.90;;;;;;5113126;28;20044;-60
2022/12/18 02:02:11;;;;;;;73.70;30.13;;;-3.60;99.90;;;;;;5094707;28;20039;-60
2022/12/18 02:04:37;;;;;;;78.40;29.15;;;-3.60;99.90;;;;;;5113205;28;20031;-60
2022/12/18 02:07:23;;;;;;;76.95;29.92;;;-4.30;99.90;;;;;;5112895;28;20135;-60
2022/12/18 02:10:18;;;;;;;71.32;28.60;;;-3.70;99.90;;;;;;5112704;28;20126;-60
2022/12/18 02:13:02;;;;;;;69.70;30.00;;;-3.70;99.90;;;;;;5094794;28;20043;-60
2022/12/18 02:15:34;;;;;;;77.22;30.85;;;-3.70;99.90;;;;;;5112887;28;20242;-60
2022/12/18 02:18:10;;;;;;;78.43;30.33;;;-3.80;99.90;;;;;;5094563;28;20047;-61
2022/12/18 02:20:55;;;;;;;72.60;29.02;;;-3.90;99.90;;;;;;5112927;28;20487;-60
2022/12/18 02:23:52;;;;;;;75.53;30.05;;;-3.90;99.90;;;;;;5112823;28;20062;-60
2022/12/18 02:26:33;;;;;;;77.15;30.00;;;-4.00;99.90;;;;;;5112485;28;20477;-60
2022/12/18 02:29:04;;;;;;;81.53;31.50;;;-3.90;99.90;;;;;;5112343;28;20119;-60
2022/12/18 02:31:37;;;;;;;75.22;29.20;;;-3.90;99.90;;;;;;5112560;28;20444;-60
2022/12/18 02:34:06;;;;;;;75.60;29.50;;;-4.00;99.90;;;;;;5112675;28;20067;-60
2022/12/18 02:36:32;;;;;;;70.05;28.27;;;-3.90;99.90;;;;;;5112702;28;20039;-60
2022/12/18 02:39:01;;;;;;;72.60;29.23;;;-3.90;99.90;;;;;;5112861;28;20634;-60
2022/12/18 02:41:28;;;;;;;73.80;30.15;;;-3.90;99.90;;;;;;5112649;28;20138;-60
2022/12/18 02:43:57;;;;;;;76.10;29.40;;;-4.00;99.90;;;;;;5112616;28;20039;-60
2022/12/18 02:46:37;;;;;;;69.18;28.45;;;-4.00;99.90;;;;;;5112528;28;20061;-60
2022/12/18 02:49:28;;;;;;;84.18;30.15;;;-4.10;99.90;;;;;;5112291;28;20111;-60
2022/12/18 02:52:01;;;;;;;74.88;28.52;;;-4.00;99.90;;;;;;5112445;28;20114;-60
2022/12/18 02:54:43;;;;;;;74.35;28.85;;;-4.10;99.90;;;;;;5112465;28;20039;-60
2022/12/18 02:57:34;;;;;;;76.03;30.40;;;-4.10;99.90;;;;;;5077227;28;20118;-60
2022/12/18 03:00:10;;;;;;;83.53;32.85;;;-4.10;99.90;;;;;;5114853;28;20055;-60
2022/12/18 03:02:54;;;;;;;76.85;31.23;;;-4.10;99.90;;;;;;5116329;28;20035;-60
2022/12/18 03:05:24;;;;;;;78.38;29.13;;;-4.20;99.90;;;;;;5116619;28;20031;-60
2022/12/18 03:08:00;;;;;;;78.20;31.58;;;-4.20;99.90;;;;;;5116249;28;20035;-60
2022/12/18 03:10:34;;;;;;;74.60;30.60;;;-4.10;99.90;;;;;;5116195;28;20515;-60
2022/12/18 03:13:10;;;;;;;83.13;31.42;;;-4.30;99.90;;;;;;5116476;28;20145;-60
2022/12/18 03:15:43;;;;;;;80.43;31.35;;;-4.20;99.90;;;;;;5116376;28;20043;-60
2022/12/18 03:18:21;;;;;;;84.93;32.22;;;-4.20;99.90;;;;;;5116756;28;20047;-60
2022/12/18 03:20:49;;;;;;;83.00;32.92;;;-4.20;99.90;;;;;;5097744;28;20122;-60
2022/12/18 03:23:20;;;;;;;79.53;31.10;;;-4.20;99.90;;;;;;5116093;28;20118;-60
2022/12/18 03:25:51;;;;;;;79.47;32.58;;;-4.20;99.90;;;;;;5097953;28;20055;-60
2022/12/18 03:28:20;;;;;;;78.65;32.08;;;-4.20;99.90;;;;;;5116050;28;20424;-60
2022/12/18 03:30:49;;;;;;;86.50;32.55;;;-4.20;99.90;;;;;;5116243;28;20039;-60
2022/12/18 03:34:02;;;;;;;84.25;33.92;;;-4.10;99.90;;;;;;5116080;28;20051;-60
2022/12/18 03:36:30;;;;;;;82.88;32.95;;;-4.20;99.90;;;;;;5013132;28;20070;-60
2022/12/18 03:38:57;;;;;;;81.05;31.55;;;-4.20;99.90;;;;;;5013125;28;20057;-60
2022/12/18 03:41:28;;;;;;;77.47;32.58;;;-4.20;99.90;;;;;;5013345;28;20038;-60
2022/12/18 03:44:10;;;;;;;86.30;32.17;;;-4.20;99.90;;;;;;5013087;28;20057;-61
2022/12/18 03:47:20;;;;;;;80.43;32.58;;;-4.20;99.90;;;;;;5013084;28;20046;-61
2022/12/18 03:50:07;;;;;;;73.30;31.10;;;-4.20;99.90;;;;;;4954535;29;20056;-60
2022/12/18 03:52:40;;;;;;;80.85;32.97;;;-4.20;99.90;;;;;;4954488;29;20055;-60
2022/12/18 03:55:08;;;;;;;72.68;31.23;;;-4.10;99.90;;;;;;4954554;29;20455;-61
2022/12/18 03:57:34;;;;;;;80.13;31.02;;;-4.20;99.90;;;;;;4954446;29;20052;-60
2022/12/18 04:00:07;;;;;;;75.32;31.20;;;-4.10;99.90;;;;;;4954495;29;20537;-60
2022/12/18 04:02:34;;;;;;;77.10;30.65;;;-4.20;99.90;;;;;;4954415;29;20039;-60
2022/12/18 04:05:04;;;;;;;78.22;31.05;;;-4.20;99.90;;;;;;4954117;29;20046;-60
2022/12/18 04:07:31;;;;;;;75.78;29.08;;;-4.20;99.90;;;;;;4954208;29;20043;-60
2022/12/18 04:10:00;;;;;;;70.93;31.63;;;-4.30;99.90;;;;;;4976856;28;20587;-60
2022/12/18 04:12:28;;;;;;;70.47;29.50;;;-4.20;99.90;;;;;;5032645;28;20075;-61
2022/12/18 04:14:54;;;;;;;82.03;30.98;;;-4.20;99.90;;;;;;5032576;28;20042;-60
2022/12/18 04:17:20;;;;;;;72.30;29.38;;;-4.30;99.90;;;;;;5015978;28;20045;-60
2022/12/18 04:19:46;;;;;;;73.32;29.92;;;-4.30;99.90;;;;;;5032397;28;20417;-60
2022/12/18 04:22:12;;;;;;;71.57;29.27;;;-4.40;99.90;;;;;;5032140;28;20037;-60
2022/12/18 04:24:37;;;;;;;75.90;30.48;;;-3.70;99.90;;;;;;5015723;28;20044;-60
2022/12/18 04:27:04;;;;;;;76.65;29.42;;;-4.40;99.90;;;;;;5094089;28;20098;-60
2022/12/18 04:29:30;;;;;;;71.68;28.77;;;-4.40;99.90;;;;;;5114590;28;20123;-60
2022/12/18 04:31:56;;;;;;;73.97;29.90;;;-4.30;99.90;;;;;;5115243;28;20118;-60
2022/12/18 04:34:22;;;;;;;75.53;29.98;;;-4.30;99.90;;;;;;5114654;28;20111;-60
2022/12/18 04:36:47;;;;;;;82.78;29.33;;;-4.30;99.90;;;;;;5114970;28;20047;-60
2022/12/18 04:39:13;;;;;;;79.47;28.88;;;-4.30;99.90;;;;;;5114896;28;20122;-60
2022/12/18 04:41:39;;;;;;;77.13;30.33;;;-4.30;99.90;;;;;;5114609;28;20393;-60
2022/12/18 04:44:05;;;;;;;70.45;28.55;;;-4.30;99.90;;;;;;5114617;28;20051;-60
2022/12/18 04:46:30;;;;;;;69.93;27.02;;;-4.30;99.90;;;;;;5114777;28;20047;-60
2022/12/18 04:48:56;;;;;;;70.10;29.63;;;-4.40;99.90;;;;;;5114382;28;20492;-60
2022/12/18 04:51:22;;;;;;;69.32;27.90;;;-4.40;99.90;;;;;;5114711;28;20031;-60
2022/12/18 04:53:47;;;;;;;75.20;30.65;;;-4.50;99.90;;;;;;5114373;28;20386;-60
2022/12/18 04:56:14;;;;;;;71.97;28.85;;;-4.50;99.90;;;;;;5114450;28;20043;-60
2022/12/18 04:58:42;;;;;;;78.90;29.55;;;-4.50;99.90;;;;;;5114311;28;20429;-60
2022/12/18 05:01:08;;;;;;;76.28;30.25;;;-4.50;99.90;;;;;;5114499;28;20044;-61
2022/12/18 05:03:35;;;;;;;73.47;29.48;;;-4.50;99.90;;;;;;5114131;28;20048;-60
2022/12/18 05:06:01;;;;;;;69.60;28.92;;;-4.50;99.90;;;;;;5114266;28;20066;-60
2022/12/18 05:08:27;;;;;;;80.40;29.13;;;-4.50;99.90;;;;;;5114302;28;20375;-60
2022/12/18 05:11:08;;;;;;;73.95;30.13;;;-4.50;99.90;;;;;;5114575;28;20048;-60
2022/12/18 05:13:35;;;;;;;79.43;30.02;;;-4.50;99.90;;;;;;5113808;28;20493;-61
2022/12/18 05:16:01;;;;;;;66.18;27.92;;;-4.60;99.90;;;;;;5095673;28;20032;-60
2022/12/18 05:18:27;;;;;;;68.40;27.63;;;-4.60;99.90;;;;;;5114005;28;20126;-60
2022/12/18 05:20:53;;;;;;;68.40;26.60;;;-4.50;99.90;;;;;;5095876;28;20114;-60
2022/12/18 05:23:20;;;;;;;68.82;27.52;;;-4.60;99.90;;;;;;5112900;28;20043;-60
2022/12/18 05:25:57;;;;;;;77.20;28.65;;;-4.50;99.90;;;;;;5114037;28;20051;-60
2022/12/18 05:28:24;;;;;;;76.43;29.20;;;-4.60;99.90;;;;;;5113759;28;20035;-60
2022/12/18 05:30:51;;;;;;;71.30;26.88;;;-4.60;99.90;;;;;;5113985;28;20538;-61
2022/12/18 05:33:17;;;;;;;74.38;29.02;;;-4.60;99.90;;;;;;5078334;28;20047;-60
2022/12/18 05:35:43;;;;;;;69.88;27.42;;;-4.60;99.90;;;;;;5113850;28;20039;-60
2022/12/18 05:38:09;;;;;;;75.28;27.40;;;-4.60;99.90;;;;;;5113475;28;20044;-60
2022/12/18 05:40:34;;;;;;;73.38;27.05;;;-4.70;99.90;;;;;;5113778;28;20451;-60
2022/12/18 05:43:00;;;;;;;69.50;25.17;;;-4.60;99.90;;;;;;5113340;28;20450;-60
2022/12/18 05:45:26;;;;;;;70.30;27.20;;;-4.70;99.90;;;;;;5094992;28;20043;-61
2022/12/18 05:47:52;;;;;;;69.55;27.17;;;-4.70;99.90;;;;;;5095511;28;20043;-60
2022/12/18 05:50:17;;;;;;;67.60;27.83;;;-4.70;99.90;;;;;;5113328;28;20032;-60
2022/12/18 05:52:43;;;;;;;66.72;26.85;;;-4.70;99.90;;;;;;5113477;28;20035;-60
2022/12/18 05:55:08;;;;;;;65.07;26.40;;;-4.70;99.90;;;;;;5113164;28;20089;-60
2022/12/18 05:57:34;;;;;;;63.08;25.90;;;-4.70;99.90;;;;;;5113105;28;20513;-61
2022/12/18 05:59:59;;;;;;;61.70;25.95;;;-4.70;99.90;;;;;;5113499;28;20074;-60
2022/12/18 06:02:25;;;;;;;58.35;26.02;;;-4.70;99.90;;;;;;5113278;28;20031;-61
2022/12/18 06:04:51;;;;;;;70.15;26.42;;;-4.80;99.90;;;;;;5113251;28;20427;-60
2022/12/18 06:07:17;;;;;;;57.67;25.73;;;-4.70;99.90;;;;;;5112923;28;20027;-60
2022/12/18 06:09:43;;;;;;;67.72;26.20;;;-4.70;99.90;;;;;;5112975;28;20135;-60
2022/12/18 06:12:10;;;;;;;62.55;24.83;;;-4.80;99.90;;;;;;5094429;28;20078;-61
2022/12/18 06:14:36;;;;;;;67.95;27.08;;;-4.80;99.90;;;;;;5113106;28;20039;-60
2022/12/18 06:17:01;;;;;;;63.60;25.48;;;-4.80;99.90;;;;;;5113164;28;20484;-60
2022/12/18 06:19:27;;;;;;;64.15;26.40;;;-4.90;99.90;;;;;;5094216;28;20486;-61
2022/12/18 06:21:53;;;;;;;58.72;25.67;;;-4.90;99.90;;;;;;5112817;28;20507;-60
2022/12/18 06:24:18;;;;;;;60.78;25.33;;;-4.90;99.90;;;;;;5112947;28;20039;-60
2022/12/18 06:26:44;;;;;;;58.60;24.85;;;-4.90;99.90;;;;;;5112652;28;20516;-60
2022/12/18 06:29:09;;;;;;;60.58;24.15;;;-4.90;99.90;;;;;;5112794;28;20126;-60
2022/12/18 06:31:35;;;;;;;53.58;23.55;;;-4.90;99.90;;;;;;5112617;28;20115;-60
2022/12/18 06:34:04;;;;;;;53.75;24.83;;;-4.90;99.90;;;;;;5112373;28;20358;-60
2022/12/18 06:36:32;;;;;;;54.42;22.30;;;-4.90;99.90;;;;;;5112498;28;20042;-60
2022/12/18 06:38:58;;;;;;;59.05;24.88;;;-4.80;99.90;;;;;;5112516;28;20118;-60
2022/12/18 06:41:24;;;;;;;52.30;23.67;;;-4.80;99.90;;;;;;5093387;28;20047;-60
2022/12/18 06:43:50;;;;;;;52.70;21.83;;;-4.90;99.90;;;;;;5112343;28;20115;-60
2022/12/18 06:46:15;;;;;;;60.67;25.17;;;-4.90;99.90;;;;;;5076879;28;20048;-60
2022/12/18 06:48:41;;;;;;;52.97;22.70;;;-4.80;99.90;;;;;;5112301;28;20101;-60
2022/12/18 06:51:07;;;;;;;53.75;22.92;;;-4.80;99.90;;;;;;5112431;28;20115;-60
2022/12/18 06:53:33;;;;;;;50.53;22.13;;;-4.90;99.90;;;;;;5112308;28;20042;-60
2022/12/18 06:56:03;;;;;;;49.05;21.85;;;-4.80;99.90;;;;;;5094111;28;20489;-60
2022/12/18 06:58:29;;;;;;;45.65;22.05;;;-4.90;99.90;;;;;;5112131;28;20039;-60
2022/12/18 07:01:03;;;;;;;45.08;21.35;;;-4.90;99.90;;;;;;5093593;28;20048;-60
2022/12/18 07:03:29;;;;;;;56.22;24.50;;;-4.90;99.90;;;;;;5112518;28;20055;-59
2022/12/18 07:05:55;;;;;;;47.45;21.83;;;-3.70;99.90;;;;;;5112113;28;20036;-60
2022/12/18 07:08:20;;;;;;;48.35;22.15;;;-4.90;99.90;;;;;;5112127;28;20091;-60
2022/12/18 07:10:48;;;;;;;48.28;20.23;;;-4.90;99.90;;;;;;5112102;28;20052;-61
2022/12/18 07:13:15;;;;;;;44.35;20.50;;;-4.80;99.90;;;;;;5112279;28;20044;-60
2022/12/18 07:15:40;;;;;;;44.38;21.02;;;-4.90;99.90;;;;;;5093946;28;20473;-60
2022/12/18 07:18:06;;;;;;;50.53;20.00;;;-4.90;99.90;;;;;;5112076;28;20042;-61
2022/12/18 07:20:31;;;;;;;43.25;19.75;;;-4.90;99.90;;;;;;5112232;28;20093;-60
2022/12/18 07:22:57;;;;;;;42.38;19.95;;;-4.90;99.90;;;;;;5093721;28;20069;-60
2022/12/18 07:25:23;;;;;;;49.10;20.02;;;-4.80;99.90;;;;;;5112015;28;20122;-60
2022/12/18 07:27:49;;;;;;;42.00;19.17;;;-4.80;99.90;;;;;;5111934;28;20097;-60
2022/12/18 07:30:14;;;;;;;42.60;19.30;;;-4.80;99.90;;;;;;5111985;28;20489;-60
2022/12/18 07:32:40;;;;;;;43.05;19.13;;;-4.80;99.90;;;;;;5093134;28;20043;-60
2022/12/18 07:35:06;;;;;;;40.13;18.25;;;-4.80;99.90;;;;;;5111604;28;20043;-60
2022/12/18 07:37:31;;;;;;;39.40;19.75;;;-4.80;99.90;;;;;;5093922;28;20069;-60
2022/12/18 07:39:57;;;;;;;38.75;20.02;;;-4.80;99.90;;;;;;5112014;28;20108;-60
2022/12/18 07:42:31;;;;;;;42.50;20.50;;;-4.80;99.90;;;;;;5093771;28;20546;-60
2022/12/18 07:44:58;;;;;;;39.53;18.33;;;-4.70;99.90;;;;;;5112519;28;20044;-60
2022/12/18 07:47:24;;;;;;;38.75;18.48;;;-4.80;99.90;;;;;;5115747;28;20576;-60
2022/12/18 07:49:50;;;;;;;37.53;18.83;;;-4.80;99.90;;;;;;5097446;28;20126;-61
2022/12/18 07:52:15;;;;;;;39.00;18.63;;;-4.80;99.90;;;;;;5115571;28;20034;-60
2022/12/18 07:54:41;;;;;;;39.28;18.92;;;-4.80;99.90;;;;;;5115819;28;20557;-60
2022/12/18 07:57:08;;;;;;;39.50;18.67;;;-4.80;99.90;;;;;;5115532;28;20032;-60
2022/12/18 07:59:34;;;;;;;40.03;18.63;;;-4.70;99.90;;;;;;5114220;28;20092;-60
2022/12/18 08:01:59;;;;;;;39.20;19.25;;;-4.60;99.90;;;;;;5114418;28;20071;-60
2022/12/18 08:04:25;;;;;;;41.80;20.17;;;-4.60;99.90;;;;;;5115203;28;20105;-60
2022/12/18 08:06:51;;;;;;;37.17;18.10;;;-4.60;99.90;;;;;;5115306;28;20403;-61
2022/12/18 08:09:17;;;;;;;39.20;18.40;;;-4.60;99.90;;;;;;5115193;28;20036;-60
2022/12/18 08:11:43;;;;;;;35.95;18.52;;;-4.60;99.90;;;;;;5115196;28;20131;-60
2022/12/18 08:14:09;;;;;;;40.47;19.88;;;-4.60;99.90;;;;;;5115221;28;20044;-61
2022/12/18 08:16:35;;;;;;;33.40;17.98;;;-4.60;99.90;;;;;;5115073;28;20039;-60
2022/12/18 08:19:01;;;;;;;34.90;17.60;;;-4.50;99.90;;;;;;5115101;28;20058;-60
2022/12/18 08:21:29;;;;;;;36.38;18.73;;;-4.50;99.90;;;;;;5114989;28;20071;-60
2022/12/18 08:23:57;;;;;;;33.15;17.75;;;-4.40;99.90;;;;;;5114955;28;20100;-60
2022/12/18 08:26:25;;;;;;;35.20;17.75;;;-4.40;99.90;;;;;;5114886;28;20032;-60
2022/12/18 08:28:53;;;;;;;33.45;17.65;;;-4.40;99.90;;;;;;5114588;28;20074;-61
2022/12/18 08:31:18;;;;;;;31.17;16.75;;;-4.30;99.90;;;;;;5111483;28;20053;-60
2022/12/18 08:33:44;;;;;;;37.92;18.83;;;-4.30;99.90;;;;;;5113766;28;20583;-61
2022/12/18 08:36:10;;;;;;;36.55;17.17;;;-4.30;99.90;;;;;;5114647;28;20065;-61
2022/12/18 08:38:36;;;;;;;33.85;17.02;;;-4.20;99.90;;;;;;5114835;28;20487;-60
2022/12/18 08:41:07;;;;;;;33.95;18.65;;;-4.20;99.90;;;;;;5114807;28;20118;-60
2022/12/18 08:46:19;;;;;;;37.17;16.63;;;-4.30;99.90;;;;;;5113252;28;20145;-60
2022/12/18 08:48:45;;;;;;;32.47;16.77;;;-4.30;99.90;;;;;;5114688;28;20377;-61
2022/12/18 08:51:10;;;;;;;38.08;17.90;;;-4.20;99.90;;;;;;5114630;28;20031;-60
2022/12/18 08:53:36;;;;;;;33.85;17.63;;;-4.20;99.90;;;;;;5114249;28;20564;-61
2022/12/18 08:56:03;;;;;;;31.42;18.52;;;-4.10;99.90;;;;;;5113876;28;20080;-60
2022/12/18 08:58:29;;;;;;;30.98;17.75;;;-4.10;99.90;;;;;;5113083;28;20111;-61
2022/12/18 09:01:00;;;;;;;31.17;17.45;;;-4.10;99.90;;;;;;5114118;28;20035;-61
2022/12/18 09:03:26;;;;;;;34.40;17.77;;;-4.00;99.90;;;;;;5114272;28;20082;-61
2022/12/18 09:05:51;;;;;;;39.72;18.38;;;-3.90;99.90;;;;;;5114189;28;20428;-61
2022/12/18 09:08:17;;;;;;;31.08;16.27;;;-3.90;99.90;;;;;;5095539;28;20044;-61
2022/12/18 09:10:44;;;;;;;30.98;16.23;;;-3.90;99.90;;;;;;5113904;28;20055;-61
2022/12/18 09:13:14;;;;;;;31.27;16.77;;;-3.90;99.90;;;;;;5113903;28;20071;-60
2022/12/18 09:15:45;;;;;;;30.10;17.17;;;-3.90;99.90;;;;;;5113936;28;20047;-61
2022/12/18 09:18:11;;;;;;;32.83;16.65;;;-3.90;99.90;;;;;;5113623;28;20043;-61
2022/12/18 09:20:37;;;;;;;33.30;18.25;;;-3.80;99.90;;;;;;5113892;28;20050;-61
2022/12/18 09:23:04;;;;;;;29.83;16.70;;;-3.70;99.90;;;;;;5113865;28;20035;-61
2022/12/18 09:25:35;;;;;;;30.52;15.98;;;-3.70;99.90;;;;;;5113885;28;20446;-61
2022/12/18 09:28:02;;;;;;;30.95;16.88;;;-3.70;99.90;;;;;;5113601;28;20047;-61
2022/12/18 09:30:28;;;;;;;31.35;16.77;;;-3.60;99.90;;;;;;5113760;28;20046;-60
2022/12/18 09:32:54;;;;;;;31.90;15.63;;;-3.60;99.90;;;;;;5113558;28;20028;-61
2022/12/18 09:35:20;;;;;;;28.95;16.02;;;-3.60;99.90;;;;;;5095030;28;20389;-61
2022/12/18 09:37:45;;;;;;;28.45;15.40;;;-3.50;99.90;;;;;;5113579;28;20043;-61
2022/12/18 09:40:17;;;;;;;30.00;15.40;;;-3.50;99.90;;;;;;5095109;28;20051;-61
2022/12/18 09:42:48;;;;;;;29.17;16.15;;;-3.50;99.90;;;;;;5113219;28;20105;-61
2022/12/18 09:45:16;;;;;;;27.45;15.15;;;-3.40;99.90;;;;;;5113469;28;20036;-61
2022/12/18 09:47:45;;;;;;;27.67;16.10;;;-3.20;99.90;;;;;;5113288;28;20077;-61
2022/12/18 09:50:37;;;;;;;26.33;14.77;;;-3.20;99.90;;;;;;5113802;28;20049;-60
2022/12/18 09:53:07;;;;;;;28.52;15.88;;;-3.10;99.90;;;;;;5112913;28;20059;-61
2022/12/18 09:55:45;;;;;;;25.88;14.85;;;-3.10;99.90;;;;;;5113151;28;20499;-61
2022/12/18 09:58:20;;;;;;;26.52;15.07;;;-3.10;99.90;;;;;;5113194;28;20065;-61
2022/12/18 10:00:46;;;;;;;25.30;14.25;;;-3.10;99.90;;;;;;5112876;28;20074;-61
2022/12/18 10:03:14;;;;;;;27.08;15.48;;;-3.10;99.90;;;;;;5113092;28;20127;-61
2022/12/18 10:06:05;;;;;;;28.40;14.63;;;-3.10;99.90;;;;;;5113034;28;20439;-61
2022/12/18 10:09:10;;;;;;;25.98;15.38;;;-3.20;99.90;;;;;;5112691;28;20036;-61
2022/12/18 10:12:18;;;;;;;27.85;14.48;;;-3.20;99.90;;;;;;5112260;28;20059;-61
2022/12/18 10:14:50;;;;;;;24.45;13.93;;;-3.30;99.90;;;;;;5112764;28;20043;-61
2022/12/18 10:17:50;;;;;;;28.02;14.93;;;-3.30;99.90;;;;;;5112873;28;20407;-61
2022/12/18 10:20:23;;;;;;;26.73;14.90;;;-3.20;99.90;;;;;;5010526;28;20061;-61
2022/12/18 10:22:56;;;;;;;24.58;13.98;;;-3.20;99.90;;;;;;5010143;28;20041;-60
2022/12/18 10:25:49;;;;;;;27.25;14.27;;;-3.10;99.90;;;;;;5010145;28;20045;-60
2022/12/18 10:28:16;;;;;;;19.42;12.18;;;-3.10;99.90;;;;;;5010002;28;20520;-61
2022/12/18 10:30:43;;;;;;;23.33;12.95;;;-3.00;99.90;;;;;;5009595;28;20042;-61
2022/12/18 10:33:15;;;;;;;23.75;13.80;;;-2.90;99.90;;;;;;5010171;28;20178;-61
2022/12/18 10:35:42;;;;;;;18.90;11.52;;;-2.90;99.90;;;;;;5010579;28;20160;-61
2022/12/18 10:38:13;;;;;;;21.25;12.32;;;-2.90;99.90;;;;;;5010180;28;20076;-60
2022/12/18 10:40:57;;;;;;;19.80;11.85;;;-2.80;99.90;;;;;;5010093;28;20067;-61
2022/12/18 10:43:28;;;;;;;19.77;11.60;;;-2.80;99.90;;;;;;5010341;28;20595;-61
2022/12/18 10:46:09;;;;;;;19.45;12.27;;;-2.80;99.90;;;;;;5010057;28;20041;-60
2022/12/18 10:48:40;;;;;;;20.90;12.25;;;-2.70;99.90;;;;;;5009854;28;20488;-61
2022/12/18 10:51:07;;;;;;;18.25;10.45;;;-2.70;99.90;;;;;;5009900;28;20046;-61
2022/12/18 10:53:36;;;;;;;18.27;10.20;;;-2.70;99.90;;;;;;5010055;28;20045;-60
2022/12/18 10:56:04;;;;;;;18.60;10.52;;;-2.60;99.90;;;;;;5038465;28;20107;-61
2022/12/18 10:58:32;;;;;;;16.45;9.75;;;-2.60;99.90;;;;;;5112099;28;20371;-61
2022/12/18 11:01:11;;;;;;;17.00;9.65;;;-2.60;99.90;;;;;;5110963;28;20138;-61
2022/12/18 11:03:40;;;;;;;16.08;9.82;;;-2.60;99.90;;;;;;5110958;28;20141;-60
2022/12/18 11:06:10;;;;;;;18.40;9.95;;;-2.50;99.90;;;;;;5093185;28;20126;-61
2022/12/18 11:08:36;;;;;;;15.65;9.45;;;-2.40;99.90;;;;;;5112085;28;20077;-61
2022/12/18 11:11:03;;;;;;;15.75;9.18;;;-2.40;99.90;;;;;;5076220;28;20112;-61
2022/12/18 11:13:31;;;;;;;14.40;8.88;;;-2.40;99.90;;;;;;5112292;28;20155;-60
2022/12/18 11:15:57;;;;;;;13.55;8.82;;;-2.30;99.90;;;;;;5112139;28;20040;-60
2022/12/18 11:18:30;;;;;;;13.82;8.95;;;-2.30;99.90;;;;;;5112098;28;20052;-61
2022/12/18 11:20:59;;;;;;;15.23;9.10;;;-2.30;99.90;;;;;;5113920;28;20087;-60
2022/12/18 11:23:25;;;;;;;13.55;7.65;;;-2.20;99.90;;;;;;5115984;28;20503;-60
2022/12/18 11:26:03;;;;;;;11.57;7.68;;;-2.20;99.90;;;;;;5115399;28;20031;-61
2022/12/18 11:28:38;;;;;;;12.48;8.15;;;-2.20;99.90;;;;;;5114580;28;20074;-60
2022/12/18 11:31:27;;;;;;;13.75;7.68;;;-2.10;99.90;;;;;;5114363;28;20034;-60
2022/12/18 11:34:05;;;;;;;13.98;8.00;;;-2.10;99.90;;;;;;5115553;28;20035;-60
2022/12/18 11:36:42;;;;;;;12.70;7.75;;;-2.10;99.90;;;;;;5115777;28;20046;-60
2022/12/18 11:39:26;;;;;;;12.63;8.05;;;-2.10;99.90;;;;;;5115600;28;20044;-60
2022/12/18 11:42:15;;;;;;;13.20;7.85;;;-2.00;99.90;;;;;;5115598;28;20035;-61
2022/12/18 11:45:00;;;;;;;15.63;8.95;;;-2.00;99.90;;;;;;5013222;28;20049;-60
2022/12/18 11:47:58;;;;;;;11.75;7.03;;;-2.00;99.90;;;;;;5013490;28;20046;-60
2022/12/18 11:50:33;;;;;;;14.05;7.47;;;-2.00;99.90;;;;;;5013113;28;20133;-60
2022/12/18 11:52:59;;;;;;;11.73;7.90;;;-1.90;99.90;;;;;;5013085;28;20153;-61
2022/12/18 11:55:58;;;;;;;13.38;7.85;;;-1.90;99.90;;;;;;5013264;28;20066;-60
2022/12/18 11:58:36;;;;;;;10.40;6.35;;;-1.80;99.90;;;;;;5013071;28;20073;-61
2022/12/18 12:01:31;;;;;;;10.77;7.38;;;-1.80;99.90;;;;;;5012741;28;20055;-61
2022/12/18 12:04:12;;;;;;;15.05;8.93;;;-1.70;99.90;;;;;;5012808;28;20053;-60
2022/12/18 12:07:07;;;;;;;11.18;6.80;;;-1.70;99.90;;;;;;5012805;28;20046;-61
2022/12/18 12:09:43;;;;;;;10.38;6.68;;;-1.70;99.90;;;;;;5012677;28;20128;-61
2022/12/18 12:12:27;;;;;;;14.02;8.05;;;-1.60;99.90;;;;;;5012493;28;20140;-61
2022/12/18 12:15:02;;;;;;;9.90;6.88;;;-1.60;99.90;;;;;;5012571;28;20050;-61
2022/12/18 12:17:42;;;;;;;9.85;6.68;;;-1.60;99.90;;;;;;5012553;28;20077;-61
2022/12/18 12:20:26;;;;;;;;;;;-1.50;99.90;;;;;;5013115;28;20045;-60
2022/12/18 12:23:07;;;;;;;11.45;5.82;;;-1.50;99.90;;;;;;5113222;28;19994;-60
2022/12/18 12:25:52;;;;;;;9.55;6.28;;;-1.50;99.90;;;;;;5115124;28;20397;-61
2022/12/18 12:28:39;;;;;;;15.63;6.28;;;-1.40;99.90;;;;;;5115052;28;20032;-61
2022/12/18 12:31:10;;;;;;;10.85;6.45;;;-1.50;99.90;;;;;;5114423;28;20036;-62
2022/12/18 12:33:46;;;;;;;11.18;6.55;;;-1.40;99.90;;;;;;5114948;28;20403;-60
2022/12/18 12:36:25;;;;;;;12.68;6.55;;;-1.40;99.90;;;;;;5114981;28;20039;-60
2022/12/18 12:38:56;;;;;;;9.80;6.10;;;-1.30;99.90;;;;;;5114546;28;20552;-60
2022/12/18 12:44:18;;;;;;;8.20;5.93;;;-1.30;99.90;;;;;;5114682;28;20114;-62
2022/12/18 12:46:46;;;;;;;8.13;5.80;;;-1.30;99.90;;;;;;5114769;28;20040;-61
2022/12/18 12:49:17;;;;;;;9.85;6.50;;;-1.20;99.90;;;;;;5114349;28;20035;-60
2022/12/18 12:51:46;;;;;;;14.25;7.03;;;-1.20;99.90;;;;;;5114522;28;20050;-61